Main page
METAR-TAF:

METAR-TAF

Airports :

Grenchen Airport

Grenchen, Switzerland

latitude: 47-10-53N, longitude: 007-24-59E, elevation: 430 m

Current weather observation

The report was made 38 minutes ago, at 15:20 UTC
Wind 7 kt from the East/Northeast
Temperature 16°C
Humidity 31%
Pressure 1020 hPa
Visibility 10 km or more
no clouds below 1500 m and no cumulonimbus

METAR: LSZG 041520Z AUTO 07007KT CAVOK 16/M01 Q1020

Time: 17:58 (15:58 UTC)

Forecast

The report was made 1 hour and 33 minutes ago, at 14:25 UTC
Forecast valid from 04 at 15 UTC to 04 at 24 UTC
Wind 4 kt from the East/Northeast
Visibility 10 km or more
no clouds below 1500 m and no cumulonimbus

TAF: LSZG 041425Z 0415/0424 07004KT CAVOK

Weather observations and forecasts of more than 4000 airports (METAR and TAF reports).

The available stations are represented by yellow and red dots on the map.

Hover mouse over dot to see the name of the station.

Then click to see weather observations and forecasts.

To change the map : click on the green buttons with a black cross to zoom in, on the green button with a dash to zoom out, or on the green arrows for adjacent maps.


METAR-TAF: